Time;durP1;ratioP1;P1;durP2;ratioP2;P2;SDS_P1;SDS_P2;PMS_P1;PMS_P2;Temp;Humidity;BMP_temperature;BMP_pressure;BME280_temperature;BME280_humidity;BME280_pressure;Samples;Min_cycle;Max_cycle;Signal;HPM_P1;HPM_P2
2023/05/26 00:01:54;;;;;;;25.30;4.10;;;;;;;;;;5281091;28;20023;-71
2023/05/26 00:04:25;;;;;;;19.25;3.05;;;;;;;;;;5282628;28;20082;-72
2023/05/26 00:06:56;;;;;;;16.42;3.42;;;;;;;;;;5281206;28;20020;-71
2023/05/26 00:09:27;;;;;;;24.27;4.03;;;;;;;;;;5282329;28;20035;-72
2023/05/26 00:11:58;;;;;;;16.13;2.83;;;;;;;;;;5281650;28;20032;-71
2023/05/26 00:14:30;;;;;;;18.80;3.08;;;;;;;;;;5281419;28;20255;-71
2023/05/26 00:17:02;;;;;;;14.50;3.05;;;;;;;;;;5282159;28;20021;-71
2023/05/26 00:19:37;;;;;;;16.95;3.90;;;;;;;;;;5282112;28;20031;-72
2023/05/26 00:22:10;;;;;;;17.40;3.08;;;;;;;;;;5281129;28;20093;-71
2023/05/26 00:24:42;;;;;;;18.63;3.17;;;;;;;;;;5281368;28;20498;-72
2023/05/26 00:27:13;;;;;;;22.65;4.05;;;;;;;;;;5282281;28;20017;-71
2023/05/26 00:29:44;;;;;;;18.92;3.88;;;;;;;;;;5280463;28;20012;-71
2023/05/26 00:32:17;;;;;;;16.98;3.20;;;;;;;;;;5282213;28;20103;-71
2023/05/26 00:34:48;;;;;;;16.02;3.13;;;;;;;;;;5281539;28;20338;-71
2023/05/26 00:37:19;;;;;;;16.65;3.00;;;;;;;;;;5281509;28;20099;-71
2023/05/26 00:39:50;;;;;;;19.95;3.75;;;;;;;;;;5281714;28;20012;-72
2023/05/26 00:42:21;;;;;;;21.20;3.88;;;;;;;;;;5281186;28;20051;-71
2023/05/26 00:44:53;;;;;;;15.23;3.13;;;;;;;;;;5281334;28;20361;-71
2023/05/26 00:47:24;;;;;;;21.20;3.15;;;;;;;;;;5281937;28;20725;-71
2023/05/26 00:49:55;;;;;;;19.40;3.03;;;;;;;;;;5280739;28;20041;-71
2023/05/26 00:52:28;;;;;;;18.88;3.38;;;;;;;;;;5282100;28;20262;-71
2023/05/26 00:55:00;;;;;;;19.45;3.10;;;;;;;;;;5281278;28;20514;-71
2023/05/26 00:57:33;;;;;;;15.98;2.80;;;;;;;;;;5280409;28;20024;-71
2023/05/26 01:00:08;;;;;;;21.30;3.42;;;;;;;;;;5281366;28;20048;-71
2023/05/26 01:02:39;;;;;;;17.83;3.40;;;;;;;;;;5281288;28;20418;-72
2023/05/26 01:05:10;;;;;;;17.35;3.28;;;;;;;;;;5280933;28;20020;-71
2023/05/26 01:07:42;;;;;;;20.02;5.30;;;;;;;;;;5281159;28;20016;-71
2023/05/26 01:10:13;;;;;;;17.73;3.38;;;;;;;;;;5280300;28;20025;-71
2023/05/26 01:12:48;;;;;;;19.35;3.35;;;;;;;;;;5280825;28;20017;-71
2023/05/26 01:15:25;;;;;;;15.57;3.60;;;;;;;;;;5281867;28;20050;-73
2023/05/26 01:18:03;;;;;;;17.92;2.80;;;;;;;;;;5280335;28;20025;-71
2023/05/26 01:20:38;;;;;;;20.75;3.72;;;;;;;;;;5281419;28;20391;-72
2023/05/26 01:23:19;;;;;;;21.48;4.05;;;;;;;;;;5281674;28;20107;-72
2023/05/26 01:25:59;;;;;;;17.33;3.05;;;;;;;;;;5280314;28;20028;-71
2023/05/26 01:28:31;;;;;;;20.15;4.43;;;;;;;;;;5281414;28;20521;-71
2023/05/26 01:31:03;;;;;;;17.55;3.63;;;;;;;;;;5281100;28;20032;-71
2023/05/26 01:33:35;;;;;;;19.50;3.70;;;;;;;;;;5280464;28;20054;-72
2023/05/26 01:36:06;;;;;;;17.75;3.60;;;;;;;;;;5281133;28;20060;-72
2023/05/26 01:38:39;;;;;;;19.67;3.50;;;;;;;;;;5280251;28;20070;-71
2023/05/26 01:41:24;;;;;;;21.05;3.30;;;;;;;;;;5281406;28;20029;-71
2023/05/26 01:44:02;;;;;;;24.10;4.60;;;;;;;;;;5284623;28;20024;-71
2023/05/26 01:46:34;;;;;;;22.13;3.75;;;;;;;;;;5284346;28;20119;-71
2023/05/26 01:49:07;;;;;;;21.88;3.20;;;;;;;;;;5284949;28;20103;-71
2023/05/26 01:51:40;;;;;;;20.83;3.42;;;;;;;;;;5284602;28;20032;-71
2023/05/26 01:54:11;;;;;;;22.67;4.97;;;;;;;;;;5284244;28;20060;-71
2023/05/26 01:56:43;;;;;;;17.90;3.08;;;;;;;;;;5284569;28;20101;-71
2023/05/26 01:59:16;;;;;;;22.58;4.50;;;;;;;;;;5285049;28;20059;-71
2023/05/26 02:01:48;;;;;;;15.82;3.03;;;;;;;;;;5283536;28;20032;-71
2023/05/26 02:04:19;;;;;;;17.13;2.83;;;;;;;;;;5284875;28;20379;-71
2023/05/26 02:06:52;;;;;;;21.60;3.03;;;;;;;;;;5283825;28;20036;-71
2023/05/26 02:09:23;;;;;;;23.10;3.28;;;;;;;;;;5284878;28;20498;-71
2023/05/26 02:11:54;;;;;;;19.58;3.20;;;;;;;;;;5284203;28;20024;-71
2023/05/26 02:14:26;;;;;;;22.10;3.30;;;;;;;;;;5283895;28;20059;-71
2023/05/26 02:16:57;;;;;;;16.17;3.03;;;;;;;;;;5284131;28;20078;-71
2023/05/26 02:19:29;;;;;;;25.90;4.22;;;;;;;;;;5284814;28;20017;-72
2023/05/26 02:22:00;;;;;;;22.48;2.92;;;;;;;;;;5283552;28;20029;-71
2023/05/26 02:24:32;;;;;;;20.52;2.92;;;;;;;;;;5284236;28;20023;-71
2023/05/26 02:27:03;;;;;;;17.58;3.95;;;;;;;;;;5284210;28;20541;-71
2023/05/26 02:29:34;;;;;;;22.38;4.47;;;;;;;;;;5283098;28;20032;-72
2023/05/26 02:32:05;;;;;;;21.58;3.70;;;;;;;;;;5284307;28;20529;-71
2023/05/26 02:34:36;;;;;;;16.92;2.95;;;;;;;;;;5283377;28;20107;-71
2023/05/26 02:37:08;;;;;;;16.35;3.33;;;;;;;;;;5284270;28;20025;-71
2023/05/26 02:39:39;;;;;;;19.13;2.90;;;;;;;;;;5284139;28;20016;-71
2023/05/26 02:42:10;;;;;;;22.15;3.78;;;;;;;;;;5283453;28;20030;-71
2023/05/26 02:44:41;;;;;;;18.77;3.67;;;;;;;;;;5283707;28;20467;-71
2023/05/26 02:47:12;;;;;;;23.24;3.70;;;;;;;;;;5284231;28;20028;-71
2023/05/26 02:49:44;;;;;;;19.20;3.04;;;;;;;;;;5282583;28;20111;-71
2023/05/26 02:52:16;;;;;;;21.88;2.90;;;;;;;;;;5283956;28;20013;-72
2023/05/26 02:54:47;;;;;;;16.25;3.25;;;;;;;;;;5283294;28;20024;-71
2023/05/26 02:57:18;;;;;;;15.44;2.36;;;;;;;;;;5283249;28;20024;-71
2023/05/26 02:59:49;;;;;;;21.75;3.20;;;;;;;;;;5283212;28;20072;-72
2023/05/26 03:02:20;;;;;;;18.62;3.66;;;;;;;;;;5283781;28;20024;-71
2023/05/26 03:04:52;;;;;;;18.77;3.08;;;;;;;;;;5282454;28;20016;-71
2023/05/26 03:07:24;;;;;;;20.55;3.42;;;;;;;;;;5283645;28;20448;-71
2023/05/26 03:09:55;;;;;;;19.23;2.65;;;;;;;;;;5282457;28;20383;-71
2023/05/26 03:12:26;;;;;;;22.33;3.15;;;;;;;;;;5282278;28;20016;-71
2023/05/26 03:14:57;;;;;;;17.92;2.75;;;;;;;;;;5282950;28;20032;-71
2023/05/26 03:17:29;;;;;;;19.13;3.17;;;;;;;;;;5282637;28;20471;-71
2023/05/26 03:20:00;;;;;;;22.65;3.72;;;;;;;;;;5282913;28;20788;-71
2023/05/26 03:22:31;;;;;;;28.08;4.50;;;;;;;;;;5283139;28;20073;-71
2023/05/26 03:25:02;;;;;;;21.52;3.20;;;;;;;;;;5282201;28;20073;-71
2023/05/26 03:27:37;;;;;;;23.88;3.20;;;;;;;;;;5282815;28;20013;-71
2023/05/26 03:30:09;;;;;;;18.58;3.38;;;;;;;;;;5282726;28;20107;-71
2023/05/26 03:32:40;;;;;;;22.15;3.45;;;;;;;;;;5281692;28;20083;-71
2023/05/26 03:35:11;;;;;;;23.35;4.07;;;;;;;;;;5283098;28;20028;-71
2023/05/26 03:37:43;;;;;;;21.08;4.45;;;;;;;;;;5282338;28;20020;-71
2023/05/26 03:40:14;;;;;;;20.02;3.35;;;;;;;;;;5282106;28;20471;-71
2023/05/26 03:42:45;;;;;;;20.77;3.08;;;;;;;;;;5282515;28;20363;-71
2023/05/26 03:45:17;;;;;;;21.45;3.83;;;;;;;;;;5281942;28;20032;-71
2023/05/26 03:47:48;;;;;;;22.98;4.13;;;;;;;;;;5282275;28;20467;-71
2023/05/26 03:50:19;;;;;;;24.77;3.95;;;;;;;;;;5282692;28;20025;-71
2023/05/26 03:52:51;;;;;;;21.35;4.38;;;;;;;;;;5281379;28;20016;-71
2023/05/26 03:55:22;;;;;;;19.00;3.63;;;;;;;;;;5282854;28;20021;-71
2023/05/26 03:57:53;;;;;;;19.15;3.38;;;;;;;;;;5282108;28;20039;-70
2023/05/26 04:00:28;;;;;;;18.63;3.70;;;;;;;;;;5281692;28;20055;-70
2023/05/26 04:03:00;;;;;;;23.17;3.40;;;;;;;;;;5282016;28;20094;-71
2023/05/26 04:05:31;;;;;;;16.80;3.20;;;;;;;;;;5281680;28;20036;-71
2023/05/26 04:08:03;;;;;;;16.15;2.55;;;;;;;;;;5281528;28;20132;-71
2023/05/26 04:10:34;;;;;;;15.35;2.40;;;;;;;;;;5282044;28;20119;-71
2023/05/26 04:13:05;;;;;;;18.48;2.70;;;;;;;;;;5281058;28;20128;-71
2023/05/26 04:15:36;;;;;;;20.17;3.22;;;;;;;;;;5282108;28;20025;-72
2023/05/26 04:18:08;;;;;;;14.52;3.05;;;;;;;;;;5282057;28;20409;-71
2023/05/26 04:20:39;;;;;;;26.27;4.20;;;;;;;;;;5281002;28;20061;-71
2023/05/26 04:23:10;;;;;;;22.42;4.35;;;;;;;;;;5282247;28;20086;-71
2023/05/26 04:25:41;;;;;;;17.90;3.10;;;;;;;;;;5281465;28;20471;-71
2023/05/26 04:28:14;;;;;;;20.70;3.45;;;;;;;;;;5281293;28;20082;-71
2023/05/26 04:30:45;;;;;;;18.70;3.55;;;;;;;;;;5281560;28;20039;-71
2023/05/26 04:33:17;;;;;;;17.27;2.88;;;;;;;;;;5282109;28;20016;-71
2023/05/26 04:35:48;;;;;;;16.42;3.25;;;;;;;;;;5280400;28;20615;-71
2023/05/26 04:38:20;;;;;;;19.02;3.08;;;;;;;;;;5281977;28;20540;-70
2023/05/26 04:40:51;;;;;;;19.30;3.88;;;;;;;;;;5281187;28;20023;-71
2023/05/26 04:43:23;;;;;;;23.33;3.53;;;;;;;;;;5281395;28;20036;-71
2023/05/26 04:45:56;;;;;;;20.48;3.58;;;;;;;;;;5281556;28;20437;-71
2023/05/26 04:48:28;;;;;;;19.90;3.53;;;;;;;;;;5281230;28;20588;-71
2023/05/26 04:50:59;;;;;;;23.00;3.65;;;;;;;;;;5281235;28;20041;-71
2023/05/26 04:53:30;;;;;;;18.58;2.90;;;;;;;;;;5281622;28;20025;-71
2023/05/26 04:56:02;;;;;;;21.80;4.15;;;;;;;;;;5280912;28;20024;-71
2023/05/26 04:58:33;;;;;;;18.60;3.72;;;;;;;;;;5281547;28;20103;-71
2023/05/26 05:01:05;;;;;;;18.60;4.07;;;;;;;;;;5281316;28;20048;-71
2023/05/26 05:03:36;;;;;;;19.54;4.02;;;;;;;;;;5280490;28;20057;-71
2023/05/26 05:06:07;;;;;;;18.33;3.08;;;;;;;;;;5281380;28;20020;-71
2023/05/26 05:08:38;;;;;;;17.02;4.13;;;;;;;;;;5281264;28;20375;-71
2023/05/26 05:11:11;;;;;;;21.42;4.18;;;;;;;;;;5280934;28;20111;-71
2023/05/26 05:13:43;;;;;;;22.65;4.43;;;;;;;;;;5280921;28;20013;-71
2023/05/26 05:16:14;;;;;;;19.00;4.28;;;;;;;;;;5281197;28;20029;-71
2023/05/26 05:18:45;;;;;;;22.85;4.13;;;;;;;;;;5284710;28;20071;-71
2023/05/26 05:21:17;;;;;;;21.92;4.68;;;;;;;;;;5285794;28;20388;-71
2023/05/26 05:23:48;;;;;;;20.08;3.63;;;;;;;;;;5284316;28;20020;-71
2023/05/26 05:26:21;;;;;;;21.83;4.63;;;;;;;;;;5285589;28;20153;-71
2023/05/26 05:28:52;;;;;;;22.90;3.95;;;;;;;;;;5284795;28;20016;-71
2023/05/26 05:31:24;;;;;;;23.73;4.03;;;;;;;;;;5284484;28;20039;-71
2023/05/26 05:33:55;;;;;;;24.48;4.07;;;;;;;;;;5284876;28;20031;-71
2023/05/26 05:36:26;;;;;;;24.10;4.03;;;;;;;;;;5285313;28;20069;-71
2023/05/26 05:38:58;;;;;;;22.98;4.30;;;;;;;;;;5283907;28;20020;-71
2023/05/26 05:41:29;;;;;;;23.73;3.60;;;;;;;;;;5285300;28;20028;-71
2023/05/26 05:44:00;;;;;;;28.80;5.75;;;;;;;;;;5284961;28;20103;-71
2023/05/26 05:46:31;;;;;;;28.83;3.92;;;;;;;;;;5284006;28;20031;-73
2023/05/26 05:49:02;;;;;;;23.58;4.10;;;;;;;;;;5284801;28;20020;-72
2023/05/26 05:51:33;;;;;;;16.90;3.10;;;;;;;;;;5283872;28;20230;-71
2023/05/26 05:54:05;;;;;;;20.88;3.15;;;;;;;;;;5284950;28;20029;-71
2023/05/26 05:56:36;;;;;;;32.17;4.30;;;;;;;;;;5284652;28;20154;-71
2023/05/26 05:59:07;;;;;;;27.38;4.60;;;;;;;;;;5283817;28;20020;-71
2023/05/26 06:01:38;;;;;;;21.38;3.35;;;;;;;;;;5284426;28;20021;-71
2023/05/26 06:04:09;;;;;;;32.20;5.65;;;;;;;;;;5284738;28;20028;-71
2023/05/26 06:06:41;;;;;;;20.23;2.47;;;;;;;;;;5283606;28;20103;-71
2023/05/26 06:09:12;;;;;;;30.48;4.93;;;;;;;;;;5284799;28;20028;-71
2023/05/26 06:11:43;;;;;;;21.73;3.95;;;;;;;;;;5283970;28;20028;-71
2023/05/26 06:14:14;;;;;;;21.35;3.38;;;;;;;;;;5283871;28;20262;-71
2023/05/26 06:16:45;;;;;;;20.95;4.25;;;;;;;;;;5283931;28;20034;-71
2023/05/26 06:19:17;;;;;;;21.27;3.50;;;;;;;;;;5284690;28;20419;-71
2023/05/26 06:21:48;;;;;;;20.98;3.20;;;;;;;;;;5283228;28;20525;-71
2023/05/26 06:24:20;;;;;;;28.75;4.97;;;;;;;;;;5284633;28;20020;-71
2023/05/26 06:26:51;;;;;;;27.58;4.20;;;;;;;;;;5282437;28;20025;-71
2023/05/26 06:29:22;;;;;;;19.75;3.55;;;;;;;;;;5283733;28;20482;-71
2023/05/26 06:31:53;;;;;;;24.02;4.18;;;;;;;;;;5283654;28;20494;-71
2023/05/26 06:34:24;;;;;;;27.80;4.20;;;;;;;;;;5283520;28;20768;-71
2023/05/26 06:36:56;;;;;;;23.60;3.50;;;;;;;;;;5283541;28;20020;-71
2023/05/26 06:39:27;;;;;;;22.50;4.75;;;;;;;;;;5283974;28;20471;-70
2023/05/26 06:41:58;;;;;;;27.42;4.57;;;;;;;;;;5282983;28;20537;-70
2023/05/26 06:44:29;;;;;;;24.00;3.85;;;;;;;;;;5283843;28;20255;-71
2023/05/26 06:47:00;;;;;;;24.27;4.15;;;;;;;;;;5283675;28;20017;-71
2023/05/26 06:49:32;;;;;;;19.05;3.67;;;;;;;;;;5282948;28;20506;-71
2023/05/26 06:52:03;;;;;;;23.88;3.92;;;;;;;;;;5283585;28;20383;-71
2023/05/26 06:54:34;;;;;;;24.85;4.40;;;;;;;;;;5283393;28;20020;-69
2023/05/26 06:57:06;;;;;;;25.88;4.93;;;;;;;;;;5282634;28;20052;-68
2023/05/26 06:59:37;;;;;;;19.55;3.20;;;;;;;;;;5282716;28;20119;-69
2023/05/26 07:02:08;;;;;;;22.77;3.97;;;;;;;;;;5282376;28;20528;-68
2023/05/26 07:04:41;;;;;;;24.58;4.43;;;;;;;;;;5282918;28;20047;-69
2023/05/26 07:07:13;;;;;;;23.30;4.10;;;;;;;;;;5281599;28;20384;-69
2023/05/26 07:09:44;;;;;;;21.58;4.32;;;;;;;;;;5280193;28;20097;-69
2023/05/26 07:12:15;;;;;;;18.33;3.70;;;;;;;;;;5281248;28;20024;-69
2023/05/26 07:14:46;;;;;;;20.38;3.60;;;;;;;;;;5280537;28;20016;-68
2023/05/26 07:17:17;;;;;;;18.23;3.55;;;;;;;;;;5280603;28;20016;-68
2023/05/26 07:19:49;;;;;;;26.38;4.45;;;;;;;;;;5280754;28;20050;-71
2023/05/26 07:22:20;;;;;;;21.90;3.88;;;;;;;;;;5283317;28;20032;-69
2023/05/26 07:24:51;;;;;;;23.83;4.68;;;;;;;;;;5281981;28;20354;-69
2023/05/26 07:27:22;;;;;;;20.90;4.40;;;;;;;;;;5283163;28;20414;-69
2023/05/26 07:29:53;;;;;;;22.63;4.55;;;;;;;;;;5281857;28;20032;-69
2023/05/26 07:32:24;;;;;;;22.60;3.73;;;;;;;;;;5283346;28;20016;-69
2023/05/26 07:34:56;;;;;;;20.80;3.58;;;;;;;;;;5282487;28;20389;-69
2023/05/26 07:37:27;;;;;;;16.67;3.00;;;;;;;;;;5282257;28;20016;-69
2023/05/26 07:39:58;;;;;;;17.10;3.83;;;;;;;;;;5281524;28;20025;-70
2023/05/26 07:42:29;;;;;;;16.88;3.80;;;;;;;;;;5282832;28;20259;-69
2023/05/26 07:45:01;;;;;;;25.50;3.80;;;;;;;;;;5281768;28;20305;-70
2023/05/26 07:47:33;;;;;;;17.25;3.67;;;;;;;;;;5282654;28;20267;-70
2023/05/26 07:50:05;;;;;;;21.30;3.85;;;;;;;;;;5282390;28;20020;-70
2023/05/26 07:52:36;;;;;;;14.85;3.30;;;;;;;;;;5281646;28;20020;-70
2023/05/26 07:55:07;;;;;;;23.20;3.53;;;;;;;;;;5282389;28;20021;-70
2023/05/26 07:57:38;;;;;;;18.38;4.13;;;;;;;;;;5282392;28;20483;-70
2023/05/26 08:00:10;;;;;;;16.88;3.17;;;;;;;;;;5281436;28;20040;-69
2023/05/26 08:02:41;;;;;;;18.35;2.92;;;;;;;;;;5281756;28;20020;-70
2023/05/26 08:05:13;;;;;;;21.73;3.63;;;;;;;;;;5281893;28;20020;-70
2023/05/26 08:07:44;;;;;;;15.40;3.17;;;;;;;;;;5282111;28;20017;-69
2023/05/26 08:10:15;;;;;;;22.65;3.83;;;;;;;;;;5282259;28;20016;-69
2023/05/26 08:12:46;;;;;;;17.50;3.00;;;;;;;;;;5280983;28;20021;-69
2023/05/26 08:15:20;;;;;;;21.15;3.55;;;;;;;;;;5282331;28;20420;-69
2023/05/26 08:17:52;;;;;;;19.17;2.70;;;;;;;;;;5281882;28;20028;-68
2023/05/26 08:20:23;;;;;;;20.98;3.95;;;;;;;;;;5281391;28;20016;-69
2023/05/26 08:22:56;;;;;;;22.20;3.47;;;;;;;;;;5281880;28;20020;-70
2023/05/26 08:25:27;;;;;;;17.35;3.70;;;;;;;;;;5282118;28;20032;-69
2023/05/26 08:27:58;;;;;;;15.75;3.53;;;;;;;;;;5280722;28;20407;-70
2023/05/26 08:30:29;;;;;;;18.27;2.83;;;;;;;;;;5281920;28;20028;-70
2023/05/26 08:33:01;;;;;;;19.52;3.78;;;;;;;;;;5281544;28;20277;-69
2023/05/26 08:35:32;;;;;;;21.42;3.80;;;;;;;;;;5277968;28;20020;-69
2023/05/26 08:38:03;;;;;;;21.35;3.67;;;;;;;;;;5281171;28;20012;-69
2023/05/26 08:40:34;;;;;;;14.40;3.22;;;;;;;;;;5280608;28;20080;-70
2023/05/26 08:43:09;;;;;;;17.58;3.72;;;;;;;;;;5281471;28;20486;-70
2023/05/26 08:45:41;;;;;;;21.10;4.13;;;;;;;;;;5281264;28;20082;-69
2023/05/26 08:48:13;;;;;;;17.45;2.83;;;;;;;;;;5281129;28;20485;-70
2023/05/26 08:50:45;;;;;;;14.70;2.67;;;;;;;;;;5280634;28;20036;-69
2023/05/26 08:53:16;;;;;;;14.23;2.58;;;;;;;;;;5281878;28;20016;-69
2023/05/26 08:55:48;;;;;;;11.57;3.10;;;;;;;;;;5280412;28;20082;-68
2023/05/26 08:58:20;;;;;;;19.08;3.28;;;;;;;;;;5280587;28;20267;-69
2023/05/26 09:00:52;;;;;;;16.60;3.85;;;;;;;;;;5280836;28;20060;-69
2023/05/26 09:03:23;;;;;;;16.13;3.20;;;;;;;;;;5280121;28;20019;-69
2023/05/26 09:05:55;;;;;;;12.55;2.80;;;;;;;;;;5280381;28;20020;-70
2023/05/26 09:08:26;;;;;;;17.35;3.22;;;;;;;;;;5273875;28;20463;-71
2023/05/26 09:10:57;;;;;;;18.30;3.07;;;;;;;;;;5279112;28;20036;-70
2023/05/26 09:13:30;;;;;;;12.55;2.80;;;;;;;;;;5281321;28;20603;-70
2023/05/26 09:16:01;;;;;;;17.67;3.03;;;;;;;;;;5280481;28;20021;-70
2023/05/26 09:18:40;;;;;;;12.07;2.75;;;;;;;;;;5281185;28;20043;-70
2023/05/26 09:21:11;;;;;;;16.92;3.40;;;;;;;;;;5281556;28;20059;-70
2023/05/26 09:23:44;;;;;;;13.50;3.03;;;;;;;;;;5280030;28;20040;-70
2023/05/26 09:26:16;;;;;;;11.90;2.80;;;;;;;;;;5281406;28;20383;-70
2023/05/26 09:28:48;;;;;;;11.88;3.05;;;;;;;;;;5280501;28;20105;-70
2023/05/26 09:31:19;;;;;;;14.32;2.95;;;;;;;;;;5278594;28;20059;-70
2023/05/26 09:33:52;;;;;;;9.52;2.53;;;;;;;;;;5280693;28;20460;-70
2023/05/26 09:36:24;;;;;;;11.10;2.25;;;;;;;;;;5281467;28;20379;-70
2023/05/26 09:38:56;;;;;;;12.23;2.75;;;;;;;;;;5280030;28;20028;-70
2023/05/26 09:41:47;;;;;;;13.03;2.60;;;;;;;;;;5281535;28;20375;-70
2023/05/26 09:44:19;;;;;;;11.25;2.28;;;;;;;;;;5280205;28;20064;-70
2023/05/26 09:46:52;;;;;;;11.95;2.60;;;;;;;;;;5280764;28;20063;-70
2023/05/26 09:49:23;;;;;;;14.23;2.42;;;;;;;;;;5281164;28;20024;-70
2023/05/26 09:51:54;;;;;;;10.13;2.63;;;;;;;;;;5280044;28;20031;-69
2023/05/26 09:54:26;;;;;;;14.77;2.58;;;;;;;;;;5281455;28;20070;-70
2023/05/26 09:57:03;;;;;;;14.30;3.35;;;;;;;;;;5280758;28;20134;-69
2023/05/26 09:59:38;;;;;;;9.88;2.75;;;;;;;;;;5279854;28;20043;-70
2023/05/26 10:02:20;;;;;;;12.20;2.83;;;;;;;;;;5281230;28;20024;-70
2023/05/26 10:04:52;;;;;;;12.68;3.15;;;;;;;;;;5283525;28;20091;-69
2023/05/26 10:07:24;;;;;;;11.13;2.40;;;;;;;;;;5284782;28;20042;-70
2023/05/26 10:10:00;;;;;;;9.90;2.30;;;;;;;;;;5283976;28;20375;-70
2023/05/26 10:12:32;;;;;;;14.68;3.60;;;;;;;;;;5283849;28;20095;-70
2023/05/26 10:15:03;;;;;;;15.02;2.63;;;;;;;;;;5284483;28;20379;-70
2023/05/26 10:17:35;;;;;;;9.32;2.10;;;;;;;;;;5284490;28;20028;-70
2023/05/26 10:20:07;;;;;;;10.20;1.98;;;;;;;;;;5283471;28;20028;-70
2023/05/26 10:22:49;;;;;;;12.25;2.83;;;;;;;;;;5284004;28;20013;-70
2023/05/26 10:25:28;;;;;;;10.60;2.38;;;;;;;;;;5284652;28;20020;-70
2023/05/26 10:27:59;;;;;;;11.30;2.25;;;;;;;;;;5282984;28;20025;-70
2023/05/26 10:30:32;;;;;;;13.10;3.13;;;;;;;;;;5283961;28;20552;-69
2023/05/26 10:33:10;;;;;;;11.68;2.75;;;;;;;;;;5283289;28;20012;-69
2023/05/26 10:36:08;;;;;;;11.95;2.88;;;;;;;;;;5283943;28;20017;-69
2023/05/26 10:38:42;;;;;;;14.82;3.13;;;;;;;;;;5281459;28;20040;-69
2023/05/26 10:41:32;;;;;;;17.20;2.97;;;;;;;;;;5283458;28;20016;-69
2023/05/26 10:44:04;;;;;;;13.57;3.63;;;;;;;;;;5284069;28;20078;-69
2023/05/26 10:46:36;;;;;;;11.93;2.25;;;;;;;;;;5283897;28;20028;-70
2023/05/26 10:49:21;;;;;;;13.25;2.58;;;;;;;;;;5283003;28;20130;-70
2023/05/26 10:51:53;;;;;;;10.25;2.58;;;;;;;;;;5283230;28;20029;-69
2023/05/26 10:54:27;;;;;;;13.45;2.50;;;;;;;;;;5279029;28;20047;-70
2023/05/26 10:56:58;;;;;;;15.30;3.20;;;;;;;;;;5282700;28;20032;-70
2023/05/26 10:59:33;;;;;;;11.90;3.20;;;;;;;;;;5283248;28;20086;-70
2023/05/26 11:02:06;;;;;;;11.68;2.55;;;;;;;;;;5282512;28;20037;-71
2023/05/26 11:04:40;;;;;;;12.13;2.83;;;;;;;;;;5282097;28;20387;-70
2023/05/26 11:07:14;;;;;;;13.98;2.80;;;;;;;;;;5282178;28;20028;-70
2023/05/26 11:10:02;;;;;;;11.38;2.70;;;;;;;;;;5282228;28;20020;-70
2023/05/26 11:12:34;;;;;;;8.37;2.13;;;;;;;;;;5283249;28;20024;-69
2023/05/26 11:15:24;;;;;;;13.38;2.65;;;;;;;;;;5281287;28;20452;-69
2023/05/26 11:17:56;;;;;;;11.10;2.30;;;;;;;;;;5282825;28;20055;-69
2023/05/26 11:20:28;;;;;;;9.30;2.58;;;;;;;;;;5283335;28;20025;-70
2023/05/26 11:22:59;;;;;;;12.32;2.15;;;;;;;;;;5281907;28;20035;-70
2023/05/26 11:25:39;;;;;;;11.65;2.65;;;;;;;;;;5283213;28;20027;-70
2023/05/26 11:28:11;;;;;;;13.10;1.88;;;;;;;;;;5283425;28;20156;-70
2023/05/26 11:30:42;;;;;;;11.83;2.23;;;;;;;;;;5281633;28;20615;-70
2023/05/26 11:33:14;;;;;;;9.43;1.83;;;;;;;;;;5283047;28;20622;-69
2023/05/26 11:35:45;;;;;;;12.70;2.53;;;;;;;;;;5282600;28;20267;-70
2023/05/26 11:38:18;;;;;;;12.90;2.65;;;;;;;;;;5282245;28;20032;-69
2023/05/26 11:40:49;;;;;;;12.07;2.75;;;;;;;;;;5281747;28;20059;-69
2023/05/26 11:43:23;;;;;;;11.53;2.13;;;;;;;;;;5282036;28;20020;-69
2023/05/26 11:45:57;;;;;;;13.15;2.42;;;;;;;;;;5281988;28;20765;-69
2023/05/26 11:48:36;;;;;;;9.73;1.88;;;;;;;;;;5282787;28;20020;-69
2023/05/26 11:51:11;;;;;;;12.35;2.05;;;;;;;;;;5281615;28;20602;-69
2023/05/26 11:53:44;;;;;;;12.18;2.17;;;;;;;;;;5281797;28;20024;-69
2023/05/26 11:56:16;;;;;;;6.63;1.23;;;;;;;;;;5282454;28;20028;-69
2023/05/26 11:58:56;;;;;;;9.88;2.25;;;;;;;;;;5281269;28;20087;-69
2023/05/26 12:01:28;;;;;;;10.48;2.50;;;;;;;;;;5282685;28;20064;-70
2023/05/26 12:04:00;;;;;;;13.73;2.40;;;;;;;;;;5281827;28;20141;-69
2023/05/26 12:06:31;;;;;;;15.27;2.55;;;;;;;;;;5281192;28;20463;-69
2023/05/26 12:09:08;;;;;;;8.55;2.03;;;;;;;;;;5281287;28;20023;-69
2023/05/26 12:11:42;;;;;;;11.00;2.08;;;;;;;;;;5281049;28;20482;-69
2023/05/26 12:14:14;;;;;;;9.10;1.55;;;;;;;;;;5282323;28;20407;-69
2023/05/26 12:16:46;;;;;;;11.30;2.22;;;;;;;;;;5281529;28;20020;-69
2023/05/26 12:19:23;;;;;;;8.55;1.42;;;;;;;;;;5281014;28;20032;-71
2023/05/26 12:22:00;;;;;;;8.73;1.92;;;;;;;;;;5281353;28;20021;-69
2023/05/26 12:24:33;;;;;;;11.73;2.00;;;;;;;;;;5281675;28;20101;-69
2023/05/26 12:27:05;;;;;;;11.95;1.98;;;;;;;;;;5280478;28;20356;-69
2023/05/26 12:29:37;;;;;;;10.48;1.98;;;;;;;;;;5281400;28;20028;-69
2023/05/26 12:32:10;;;;;;;10.77;2.13;;;;;;;;;;5281378;28;20020;-69
2023/05/26 12:34:41;;;;;;;13.38;2.13;;;;;;;;;;5280512;28;20012;-69
2023/05/26 12:37:13;;;;;;;14.30;2.55;;;;;;;;;;5280948;28;20027;-69
2023/05/26 12:39:44;;;;;;;11.57;2.05;;;;;;;;;;5278535;28;20032;-69
2023/05/26 12:42:15;;;;;;;9.45;1.77;;;;;;;;;;5281726;28;20019;-68
2023/05/26 12:44:46;;;;;;;8.43;1.60;;;;;;;;;;5281453;28;20035;-68
2023/05/26 12:47:18;;;;;;;9.15;1.50;;;;;;;;;;5281130;28;20262;-68
2023/05/26 12:49:49;;;;;;;8.32;1.73;;;;;;;;;;5281023;28;20279;-69
2023/05/26 12:52:20;;;;;;;7.35;1.58;;;;;;;;;;5281593;28;20047;-69
2023/05/26 12:54:51;;;;;;;8.13;1.80;;;;;;;;;;5280435;28;20044;-68
2023/05/26 12:57:23;;;;;;;8.80;2.00;;;;;;;;;;5281782;28;20024;-68
2023/05/26 12:59:54;;;;;;;9.77;1.60;;;;;;;;;;5280997;28;20101;-68
2023/05/26 13:02:25;;;;;;;9.40;1.40;;;;;;;;;;5280835;28;20265;-68
2023/05/26 13:04:56;;;;;;;9.43;1.50;;;;;;;;;;5280781;28;20773;-70
2023/05/26 13:07:27;;;;;;;8.40;1.80;;;;;;;;;;5281432;28;20031;-70
2023/05/26 13:09:58;;;;;;;11.23;1.50;;;;;;;;;;5280665;28;20294;-70
2023/05/26 13:12:30;;;;;;;10.27;1.50;;;;;;;;;;5281330;28;20305;-71
2023/05/26 13:15:01;;;;;;;9.10;1.75;;;;;;;;;;5280585;28;20266;-70
2023/05/26 13:17:32;;;;;;;8.82;1.80;;;;;;;;;;5281049;28;20048;-71
2023/05/26 13:20:05;;;;;;;9.93;1.43;;;;;;;;;;5281049;28;20052;-70
2023/05/26 13:22:38;;;;;;;10.65;1.60;;;;;;;;;;5279987;28;20328;-70
2023/05/26 13:25:09;;;;;;;9.50;2.05;;;;;;;;;;5280980;28;20017;-70
2023/05/26 13:27:40;;;;;;;10.75;1.85;;;;;;;;;;5281024;28;20074;-70
2023/05/26 13:30:12;;;;;;;11.57;1.85;;;;;;;;;;5280694;28;20490;-69
2023/05/26 13:32:43;;;;;;;9.10;1.88;;;;;;;;;;5280713;28;20020;-71
2023/05/26 13:35:14;;;;;;;11.93;1.93;;;;;;;;;;5281344;28;20062;-71
2023/05/26 13:37:46;;;;;;;11.18;1.70;;;;;;;;;;5280712;28;20263;-70
2023/05/26 13:40:18;;;;;;;9.27;1.48;;;;;;;;;;5285080;28;20020;-70
2023/05/26 13:42:49;;;;;;;7.30;1.10;;;;;;;;;;5283799;28;20020;-70
2023/05/26 13:45:20;;;;;;;6.57;1.48;;;;;;;;;;5284959;28;20051;-70
2023/05/26 13:47:52;;;;;;;13.27;1.83;;;;;;;;;;5284423;28;20017;-70
2023/05/26 13:50:23;;;;;;;10.70;2.10;;;;;;;;;;5284208;28;20278;-70
2023/05/26 13:52:54;;;;;;;10.40;1.85;;;;;;;;;;5284099;28;20028;-71
2023/05/26 13:55:26;;;;;;;8.38;1.17;;;;;;;;;;5284825;28;20099;-71
2023/05/26 13:57:57;;;;;;;8.75;1.92;;;;;;;;;;5283729;28;20481;-71
2023/05/26 14:00:28;;;;;;;8.77;1.50;;;;;;;;;;5284772;28;20052;-71
2023/05/26 14:02:59;;;;;;;11.50;1.25;;;;;;;;;;5284193;28;20040;-71
2023/05/26 14:05:31;;;;;;;9.27;1.67;;;;;;;;;;5283413;28;20266;-70
2023/05/26 14:08:05;;;;;;;10.07;2.03;;;;;;;;;;5284409;28;20020;-71
2023/05/26 14:10:36;;;;;;;7.25;1.38;;;;;;;;;;5283918;28;20483;-71
2023/05/26 14:13:07;;;;;;;13.80;1.83;;;;;;;;;;5283359;28;20070;-70
2023/05/26 14:15:38;;;;;;;9.00;1.67;;;;;;;;;;5284119;28;20016;-71
2023/05/26 14:18:09;;;;;;;11.52;1.77;;;;;;;;;;5283183;28;20273;-70
2023/05/26 14:20:41;;;;;;;6.60;1.00;;;;;;;;;;5283771;28;20031;-71
2023/05/26 14:23:13;;;;;;;14.65;1.65;;;;;;;;;;5284426;28;20294;-70
2023/05/26 14:25:44;;;;;;;10.07;1.87;;;;;;;;;;5283164;28;20024;-70
2023/05/26 14:28:15;;;;;;;8.38;1.45;;;;;;;;;;5284383;28;20346;-71
2023/05/26 14:30:46;;;;;;;8.55;1.60;;;;;;;;;;5283815;28;20282;-71
2023/05/26 14:33:17;;;;;;;10.27;1.27;;;;;;;;;;5283412;28;20020;-70
2023/05/26 14:35:49;;;;;;;7.85;1.50;;;;;;;;;;5283686;28;20270;-70
2023/05/26 14:38:21;;;;;;;8.60;1.30;;;;;;;;;;5284095;28;20017;-70
2023/05/26 14:40:52;;;;;;;10.07;1.60;;;;;;;;;;5282898;28;20029;-71
2023/05/26 14:43:24;;;;;;;7.37;1.47;;;;;;;;;;5284269;28;20020;-71
2023/05/26 14:45:56;;;;;;;10.50;1.55;;;;;;;;;;5283311;28;20365;-71
2023/05/26 14:48:27;;;;;;;16.98;1.65;;;;;;;;;;5283478;28;20073;-70
2023/05/26 14:50:58;;;;;;;8.90;1.43;;;;;;;;;;5283251;28;20127;-70
2023/05/26 14:53:29;;;;;;;10.73;1.80;;;;;;;;;;5282440;28;20271;-71
2023/05/26 14:56:00;;;;;;;9.43;2.20;;;;;;;;;;5283263;28;20035;-70
2023/05/26 14:58:32;;;;;;;12.50;1.90;;;;;;;;;;5281104;28;20404;-70
2023/05/26 15:01:03;;;;;;;8.25;1.33;;;;;;;;;;5279516;28;20789;-70